Huvudsida
METAR-TAF:

METAR-TAF

Flygplatser :

Jakutsk, Ryssland

latitud: 62-01N, longitud: 129-43E, höjd: 103 m

Aktuellt väderrapport

Denna rapport gjordes för 20 minuter sedan, klockan 15:00 UTC
Stilla vind
Temperatur 0°C
Fuktighet 86%
Tryck 1010 hPa
Sikt 10 km eller mer
Inga moln under 1 500 m eller inga cumulonimbus

METAR: UEEE 261500Z 00000MPS CAVOK 00/M02 Q1010 R23L/09//60 NOSIG RMK QFE749

Tid: 00:20 (15:20 UTC)

Väderprognos

Denna rapport gjordes för 1 timme och 20 minuter sedan, klockan 14:00 UTC
Prognos gäller från 26 kl. 15 UTC till 27 kl. 21 UTC
Vind 6 kt från väst i byarna ända upp till 16 kt
Sikt 10 km eller mer
Inga moln under 1 500 m eller inga cumulonimbus
Temporärt
från 26 kl. 15 UTC till 27 kl. 01 UTC
Vind 2 kt varierande vindriktning
Sikt: 0300 m
på en höjd av 300 ft
underkyld dimma

TAF: UEEE 261400Z 2615/2721 26003G08MPS CAVOK TEMPO 2615/2701 VRB01MPS 0300 FZFG VV003

Aktuella väderrapporter och prognoser från 4000 flygplatser (METAR- och TAF-rapporter).

De tillgängliga stationerna syns som gula och röda prickar på kartan.

För musen över prickarna för att se namnen på stationerna.

Klicka sedan för att få väderrapporter och prognoser.

För att ändra kartan: Klicka på de gröna knapparna med ett svart kors på för att zooma in; den gröna knappen med ett streck på för att zooma ut; eller på de gröna pilarna för angränsande kartor.


METAR-TAF: